sensor_id;sensor_type;location;lat;lon;timestamp;P1;durP1;ratioP1;P2;durP2;ratioP2
55728;SDS011;41633;39.720;2.910;2022-10-16T00:01:18;8.10;;;2.70;;
55728;SDS011;41633;39.720;2.910;2022-10-16T00:03:45;8.10;;;2.80;;
55728;SDS011;41633;39.720;2.910;2022-10-16T00:06:12;8.32;;;2.67;;
55728;SDS011;41633;39.720;2.910;2022-10-16T00:08:38;9.85;;;3.05;;
55728;SDS011;41633;39.720;2.910;2022-10-16T00:11:06;8.27;;;2.53;;
55728;SDS011;41633;39.720;2.910;2022-10-16T00:13:33;7.80;;;2.85;;
55728;SDS011;41633;39.720;2.910;2022-10-16T00:16:00;8.98;;;3.08;;
55728;SDS011;41633;39.720;2.910;2022-10-16T00:18:27;10.10;;;4.40;;
55728;SDS011;41633;39.720;2.910;2022-10-16T00:20:53;9.02;;;3.22;;
55728;SDS011;41633;39.720;2.910;2022-10-16T00:23:20;8.50;;;2.95;;
55728;SDS011;41633;39.720;2.910;2022-10-16T00:25:56;8.32;;;2.60;;
55728;SDS011;41633;39.720;2.910;2022-10-16T00:28:22;8.43;;;2.22;;
55728;SDS011;41633;39.720;2.910;2022-10-16T00:33:14;7.82;;;2.45;;
55728;SDS011;41633;39.720;2.910;2022-10-16T00:38:06;8.70;;;2.55;;
55728;SDS011;41633;39.720;2.910;2022-10-16T00:42:58;7.32;;;2.20;;
55728;SDS011;41633;39.720;2.910;2022-10-16T00:45:25;8.93;;;2.58;;
55728;SDS011;41633;39.720;2.910;2022-10-16T00:50:30;8.98;;;2.47;;
55728;SDS011;41633;39.720;2.910;2022-10-16T00:52:57;7.93;;;2.20;;
55728;SDS011;41633;39.720;2.910;2022-10-16T00:55:24;8.20;;;2.20;;
55728;SDS011;41633;39.720;2.910;2022-10-16T00:57:51;9.02;;;2.50;;
55728;SDS011;41633;39.720;2.910;2022-10-16T01:00:19;8.70;;;2.13;;
55728;SDS011;41633;39.720;2.910;2022-10-16T01:02:51;7.47;;;2.28;;
55728;SDS011;41633;39.720;2.910;2022-10-16T01:05:17;6.95;;;2.28;;
55728;SDS011;41633;39.720;2.910;2022-10-16T01:15:18;5.70;;;1.98;;
55728;SDS011;41633;39.720;2.910;2022-10-16T01:25:25;7.18;;;2.10;;
55728;SDS011;41633;39.720;2.910;2022-10-16T01:27:56;6.95;;;2.40;;
55728;SDS011;41633;39.720;2.910;2022-10-16T01:30:24;8.65;;;2.33;;
55728;SDS011;41633;39.720;2.910;2022-10-16T01:33:01;12.75;;;3.60;;
55728;SDS011;41633;39.720;2.910;2022-10-16T01:35:34;10.65;;;3.50;;
55728;SDS011;41633;39.720;2.910;2022-10-16T01:40:30;10.50;;;3.20;;
55728;SDS011;41633;39.720;2.910;2022-10-16T01:42:59;9.32;;;2.97;;
55728;SDS011;41633;39.720;2.910;2022-10-16T01:45:26;8.98;;;2.80;;
55728;SDS011;41633;39.720;2.910;2022-10-16T01:47:54;10.68;;;2.58;;
55728;SDS011;41633;39.720;2.910;2022-10-16T01:50:20;8.00;;;2.53;;
55728;SDS011;41633;39.720;2.910;2022-10-16T01:52:48;11.98;;;3.50;;
55728;SDS011;41633;39.720;2.910;2022-10-16T01:55:26;9.93;;;3.20;;
55728;SDS011;41633;39.720;2.910;2022-10-16T01:57:57;11.82;;;3.67;;
55728;SDS011;41633;39.720;2.910;2022-10-16T02:00:24;10.82;;;3.60;;
55728;SDS011;41633;39.720;2.910;2022-10-16T02:02:52;11.50;;;3.40;;
55728;SDS011;41633;39.720;2.910;2022-10-16T02:05:30;9.80;;;3.22;;
55728;SDS011;41633;39.720;2.910;2022-10-16T02:07:56;9.80;;;3.50;;
55728;SDS011;41633;39.720;2.910;2022-10-16T02:12:59;9.82;;;3.25;;
55728;SDS011;41633;39.720;2.910;2022-10-16T02:15:26;10.35;;;3.40;;
55728;SDS011;41633;39.720;2.910;2022-10-16T02:20:19;12.05;;;4.28;;
55728;SDS011;41633;39.720;2.910;2022-10-16T02:22:48;8.25;;;3.10;;
55728;SDS011;41633;39.720;2.910;2022-10-16T02:25:24;10.65;;;4.28;;
55728;SDS011;41633;39.720;2.910;2022-10-16T02:27:55;8.32;;;3.03;;
55728;SDS011;41633;39.720;2.910;2022-10-16T02:32:52;10.27;;;2.50;;
55728;SDS011;41633;39.720;2.910;2022-10-16T02:35:19;7.82;;;2.25;;
55728;SDS011;41633;39.720;2.910;2022-10-16T02:37:46;9.32;;;2.75;;
55728;SDS011;41633;39.720;2.910;2022-10-16T02:40:13;10.23;;;2.67;;
55728;SDS011;41633;39.720;2.910;2022-10-16T02:42:40;8.45;;;3.13;;
55728;SDS011;41633;39.720;2.910;2022-10-16T02:45:06;10.90;;;3.10;;
55728;SDS011;41633;39.720;2.910;2022-10-16T02:47:33;10.55;;;2.70;;
55728;SDS011;41633;39.720;2.910;2022-10-16T02:52:25;8.57;;;2.05;;
55728;SDS011;41633;39.720;2.910;2022-10-16T02:57:17;5.22;;;1.63;;
55728;SDS011;41633;39.720;2.910;2022-10-16T02:59:43;7.93;;;1.95;;
55728;SDS011;41633;39.720;2.910;2022-10-16T03:02:10;9.48;;;2.55;;
55728;SDS011;41633;39.720;2.910;2022-10-16T03:04:36;10.05;;;3.10;;
55728;SDS011;41633;39.720;2.910;2022-10-16T03:07:02;9.15;;;2.70;;
55728;SDS011;41633;39.720;2.910;2022-10-16T03:11:54;8.68;;;2.03;;
55728;SDS011;41633;39.720;2.910;2022-10-16T03:16:46;9.43;;;2.38;;
55728;SDS011;41633;39.720;2.910;2022-10-16T03:21:38;10.25;;;4.03;;
55728;SDS011;41633;39.720;2.910;2022-10-16T03:26:30;10.23;;;3.08;;
55728;SDS011;41633;39.720;2.910;2022-10-16T03:31:22;11.13;;;2.78;;
55728;SDS011;41633;39.720;2.910;2022-10-16T03:36:15;6.28;;;2.13;;
55728;SDS011;41633;39.720;2.910;2022-10-16T03:41:07;8.20;;;2.33;;
55728;SDS011;41633;39.720;2.910;2022-10-16T03:45:59;10.77;;;3.10;;
55728;SDS011;41633;39.720;2.910;2022-10-16T03:48:25;7.43;;;2.70;;
55728;SDS011;41633;39.720;2.910;2022-10-16T03:53:17;7.97;;;2.40;;
55728;SDS011;41633;39.720;2.910;2022-10-16T03:58:09;7.65;;;2.35;;
55728;SDS011;41633;39.720;2.910;2022-10-16T04:03:01;8.30;;;2.50;;
55728;SDS011;41633;39.720;2.910;2022-10-16T04:07:53;8.20;;;2.38;;
55728;SDS011;41633;39.720;2.910;2022-10-16T04:10:20;9.07;;;2.65;;
55728;SDS011;41633;39.720;2.910;2022-10-16T04:12:46;11.23;;;2.60;;
55728;SDS011;41633;39.720;2.910;2022-10-16T04:17:38;7.65;;;2.22;;
55728;SDS011;41633;39.720;2.910;2022-10-16T04:20:04;9.63;;;2.63;;
55728;SDS011;41633;39.720;2.910;2022-10-16T04:22:31;9.55;;;2.25;;
55728;SDS011;41633;39.720;2.910;2022-10-16T04:24:57;9.05;;;2.15;;
55728;SDS011;41633;39.720;2.910;2022-10-16T04:27:23;12.27;;;2.22;;
55728;SDS011;41633;39.720;2.910;2022-10-16T04:32:15;7.93;;;2.30;;
55728;SDS011;41633;39.720;2.910;2022-10-16T04:37:07;7.28;;;2.20;;
55728;SDS011;41633;39.720;2.910;2022-10-16T04:39:33;7.45;;;2.10;;
55728;SDS011;41633;39.720;2.910;2022-10-16T04:44:25;7.68;;;1.90;;
55728;SDS011;41633;39.720;2.910;2022-10-16T04:49:17;6.97;;;1.80;;
55728;SDS011;41633;39.720;2.910;2022-10-16T04:54:09;8.35;;;1.90;;
55728;SDS011;41633;39.720;2.910;2022-10-16T04:56:35;7.57;;;1.85;;
55728;SDS011;41633;39.720;2.910;2022-10-16T04:59:08;8.40;;;1.83;;
55728;SDS011;41633;39.720;2.910;2022-10-16T05:01:34;8.57;;;1.73;;
55728;SDS011;41633;39.720;2.910;2022-10-16T05:06:26;8.23;;;2.33;;
55728;SDS011;41633;39.720;2.910;2022-10-16T05:11:18;7.85;;;2.03;;
55728;SDS011;41633;39.720;2.910;2022-10-16T05:13:44;9.80;;;2.20;;
55728;SDS011;41633;39.720;2.910;2022-10-16T05:16:10;6.30;;;1.70;;
55728;SDS011;41633;39.720;2.910;2022-10-16T05:21:02;5.53;;;1.60;;
55728;SDS011;41633;39.720;2.910;2022-10-16T05:25:55;7.80;;;2.05;;
55728;SDS011;41633;39.720;2.910;2022-10-16T05:28:23;8.10;;;2.03;;
55728;SDS011;41633;39.720;2.910;2022-10-16T05:30:49;12.63;;;2.60;;
55728;SDS011;41633;39.720;2.910;2022-10-16T05:33:15;8.40;;;2.10;;
55728;SDS011;41633;39.720;2.910;2022-10-16T05:38:07;10.13;;;2.10;;
55728;SDS011;41633;39.720;2.910;2022-10-16T05:43:00;7.70;;;2.10;;
55728;SDS011;41633;39.720;2.910;2022-10-16T05:47:52;10.20;;;2.20;;
55728;SDS011;41633;39.720;2.910;2022-10-16T05:50:18;11.18;;;2.38;;
55728;SDS011;41633;39.720;2.910;2022-10-16T05:55:10;7.68;;;2.28;;
55728;SDS011;41633;39.720;2.910;2022-10-16T06:00:03;8.02;;;2.13;;
55728;SDS011;41633;39.720;2.910;2022-10-16T06:02:29;7.95;;;2.08;;
55728;SDS011;41633;39.720;2.910;2022-10-16T06:07:21;8.65;;;2.08;;
55728;SDS011;41633;39.720;2.910;2022-10-16T06:09:51;9.65;;;2.10;;
55728;SDS011;41633;39.720;2.910;2022-10-16T06:12:18;9.25;;;2.15;;
55728;SDS011;41633;39.720;2.910;2022-10-16T06:14:45;7.45;;;2.00;;
55728;SDS011;41633;39.720;2.910;2022-10-16T06:17:12;7.72;;;2.08;;
55728;SDS011;41633;39.720;2.910;2022-10-16T06:19:39;9.95;;;2.28;;
55728;SDS011;41633;39.720;2.910;2022-10-16T06:22:05;6.90;;;1.95;;
55728;SDS011;41633;39.720;2.910;2022-10-16T06:26:57;6.25;;;1.88;;
55728;SDS011;41633;39.720;2.910;2022-10-16T06:31:49;9.52;;;2.30;;
55728;SDS011;41633;39.720;2.910;2022-10-16T06:36:41;9.00;;;1.98;;
55728;SDS011;41633;39.720;2.910;2022-10-16T06:39:08;7.32;;;1.85;;
55728;SDS011;41633;39.720;2.910;2022-10-16T06:44:00;8.30;;;1.98;;
55728;SDS011;41633;39.720;2.910;2022-10-16T06:46:27;7.70;;;1.80;;
55728;SDS011;41633;39.720;2.910;2022-10-16T06:48:53;8.98;;;2.20;;
55728;SDS011;41633;39.720;2.910;2022-10-16T06:53:46;7.72;;;1.90;;
55728;SDS011;41633;39.720;2.910;2022-10-16T06:56:22;9.02;;;2.20;;
55728;SDS011;41633;39.720;2.910;2022-10-16T06:58:48;10.05;;;2.00;;
55728;SDS011;41633;39.720;2.910;2022-10-16T07:01:15;8.07;;;2.28;;
55728;SDS011;41633;39.720;2.910;2022-10-16T07:03:42;9.38;;;2.42;;
55728;SDS011;41633;39.720;2.910;2022-10-16T07:06:09;9.05;;;2.20;;
55728;SDS011;41633;39.720;2.910;2022-10-16T07:08:37;10.30;;;2.15;;
55728;SDS011;41633;39.720;2.910;2022-10-16T07:11:04;10.38;;;2.28;;
55728;SDS011;41633;39.720;2.910;2022-10-16T07:13:34;9.73;;;2.20;;
55728;SDS011;41633;39.720;2.910;2022-10-16T07:16:34;8.30;;;2.30;;
55728;SDS011;41633;39.720;2.910;2022-10-16T07:18:53;9.95;;;2.40;;
55728;SDS011;41633;39.720;2.910;2022-10-16T07:21:23;10.70;;;3.30;;
55728;SDS011;41633;39.720;2.910;2022-10-16T07:23:51;10.48;;;3.63;;
55728;SDS011;41633;39.720;2.910;2022-10-16T07:26:17;11.77;;;3.65;;
55728;SDS011;41633;39.720;2.910;2022-10-16T07:28:43;9.43;;;2.63;;
55728;SDS011;41633;39.720;2.910;2022-10-16T07:33:36;12.38;;;3.00;;
55728;SDS011;41633;39.720;2.910;2022-10-16T07:36:02;8.25;;;2.10;;
55728;SDS011;41633;39.720;2.910;2022-10-16T07:38:28;8.05;;;2.30;;
55728;SDS011;41633;39.720;2.910;2022-10-16T07:40:58;9.05;;;2.30;;
55728;SDS011;41633;39.720;2.910;2022-10-16T07:43:25;9.10;;;2.30;;
55728;SDS011;41633;39.720;2.910;2022-10-16T07:45:51;9.82;;;2.58;;
55728;SDS011;41633;39.720;2.910;2022-10-16T07:48:17;7.07;;;2.47;;
55728;SDS011;41633;39.720;2.910;2022-10-16T07:50:44;7.85;;;2.60;;
55728;SDS011;41633;39.720;2.910;2022-10-16T07:53:11;10.65;;;2.70;;
55728;SDS011;41633;39.720;2.910;2022-10-16T07:55:37;8.52;;;2.33;;
55728;SDS011;41633;39.720;2.910;2022-10-16T07:58:04;7.75;;;2.10;;
55728;SDS011;41633;39.720;2.910;2022-10-16T08:00:30;9.07;;;2.90;;
55728;SDS011;41633;39.720;2.910;2022-10-16T08:02:59;11.95;;;3.70;;
55728;SDS011;41633;39.720;2.910;2022-10-16T08:05:26;11.77;;;4.43;;
55728;SDS011;41633;39.720;2.910;2022-10-16T08:07:52;11.68;;;3.92;;
55728;SDS011;41633;39.720;2.910;2022-10-16T08:10:19;10.07;;;3.20;;
55728;SDS011;41633;39.720;2.910;2022-10-16T08:12:46;9.43;;;3.47;;
55728;SDS011;41633;39.720;2.910;2022-10-16T08:15:12;9.68;;;2.90;;
55728;SDS011;41633;39.720;2.910;2022-10-16T08:17:38;9.60;;;3.08;;
55728;SDS011;41633;39.720;2.910;2022-10-16T08:20:04;11.57;;;3.20;;
55728;SDS011;41633;39.720;2.910;2022-10-16T08:22:31;9.95;;;2.72;;
55728;SDS011;41633;39.720;2.910;2022-10-16T08:24:57;8.75;;;2.78;;
55728;SDS011;41633;39.720;2.910;2022-10-16T08:27:23;9.82;;;2.85;;
55728;SDS011;41633;39.720;2.910;2022-10-16T08:29:49;10.88;;;2.63;;
55728;SDS011;41633;39.720;2.910;2022-10-16T08:32:15;8.20;;;2.35;;
55728;SDS011;41633;39.720;2.910;2022-10-16T08:34:41;11.15;;;2.88;;
55728;SDS011;41633;39.720;2.910;2022-10-16T08:37:07;10.07;;;2.70;;
55728;SDS011;41633;39.720;2.910;2022-10-16T08:39:36;8.80;;;2.30;;
55728;SDS011;41633;39.720;2.910;2022-10-16T08:42:08;11.00;;;2.70;;
55728;SDS011;41633;39.720;2.910;2022-10-16T08:44:46;8.90;;;2.60;;
55728;SDS011;41633;39.720;2.910;2022-10-16T08:47:17;8.50;;;2.50;;
55728;SDS011;41633;39.720;2.910;2022-10-16T08:49:50;9.93;;;3.15;;
55728;SDS011;41633;39.720;2.910;2022-10-16T08:52:18;12.05;;;3.30;;
55728;SDS011;41633;39.720;2.910;2022-10-16T08:54:45;9.50;;;3.00;;
55728;SDS011;41633;39.720;2.910;2022-10-16T08:57:20;11.27;;;3.50;;
55728;SDS011;41633;39.720;2.910;2022-10-16T08:59:46;12.85;;;4.45;;
55728;SDS011;41633;39.720;2.910;2022-10-16T09:02:21;11.15;;;3.85;;
55728;SDS011;41633;39.720;2.910;2022-10-16T09:10:41;12.80;;;3.30;;
55728;SDS011;41633;39.720;2.910;2022-10-16T09:18:12;11.10;;;3.22;;
55728;SDS011;41633;39.720;2.910;2022-10-16T09:20:57;12.40;;;3.35;;
55728;SDS011;41633;39.720;2.910;2022-10-16T09:23:25;10.43;;;2.92;;
55728;SDS011;41633;39.720;2.910;2022-10-16T09:25:52;10.23;;;2.95;;
55728;SDS011;41633;39.720;2.910;2022-10-16T09:28:18;9.82;;;3.22;;
55728;SDS011;41633;39.720;2.910;2022-10-16T09:30:45;10.07;;;3.50;;
55728;SDS011;41633;39.720;2.910;2022-10-16T09:33:13;9.90;;;3.80;;
55728;SDS011;41633;39.720;2.910;2022-10-16T09:35:42;11.68;;;4.50;;
55728;SDS011;41633;39.720;2.910;2022-10-16T09:38:09;10.98;;;;;
55728;SDS011;41633;39.720;2.910;2022-10-16T09:40:46;11.70;;;4.07;;
55728;SDS011;41633;39.720;2.910;2022-10-16T09:43:17;11.70;;;4.10;;
55728;SDS011;41633;39.720;2.910;2022-10-16T09:48:43;17.10;;;7.53;;
55728;SDS011;41633;39.720;2.910;2022-10-16T09:51:18;15.07;;;6.90;;
55728;SDS011;41633;39.720;2.910;2022-10-16T09:53:45;13.80;;;7.07;;
55728;SDS011;41633;39.720;2.910;2022-10-16T09:56:20;14.50;;;6.90;;
55728;SDS011;41633;39.720;2.910;2022-10-16T09:58:50;18.17;;;9.15;;
55728;SDS011;41633;39.720;2.910;2022-10-16T10:01:17;20.83;;;11.48;;
55728;SDS011;41633;39.720;2.910;2022-10-16T10:03:43;18.27;;;9.82;;
55728;SDS011;41633;39.720;2.910;2022-10-16T10:06:17;17.55;;;8.43;;
55728;SDS011;41633;39.720;2.910;2022-10-16T10:14:31;12.15;;;4.82;;
55728;SDS011;41633;39.720;2.910;2022-10-16T10:17:14;10.18;;;3.63;;
55728;SDS011;41633;39.720;2.910;2022-10-16T10:24:55;9.02;;;3.30;;
55728;SDS011;41633;39.720;2.910;2022-10-16T10:27:24;11.40;;;3.70;;
55728;SDS011;41633;39.720;2.910;2022-10-16T10:32:25;13.05;;;5.35;;
55728;SDS011;41633;39.720;2.910;2022-10-16T10:35:14;15.02;;;5.55;;
55728;SDS011;41633;39.720;2.910;2022-10-16T10:37:51;15.82;;;6.25;;
55728;SDS011;41633;39.720;2.910;2022-10-16T10:43:12;10.20;;;4.65;;
55728;SDS011;41633;39.720;2.910;2022-10-16T10:45:43;11.50;;;4.40;;
55728;SDS011;41633;39.720;2.910;2022-10-16T10:50:43;12.98;;;5.10;;
55728;SDS011;41633;39.720;2.910;2022-10-16T11:06:36;11.43;;;3.38;;
55728;SDS011;41633;39.720;2.910;2022-10-16T11:08:55;10.02;;;3.58;;
55728;SDS011;41633;39.720;2.910;2022-10-16T11:11:26;10.63;;;3.65;;
55728;SDS011;41633;39.720;2.910;2022-10-16T11:13:59;11.13;;;3.80;;
55728;SDS011;41633;39.720;2.910;2022-10-16T11:16:27;10.23;;;3.63;;
55728;SDS011;41633;39.720;2.910;2022-10-16T11:21:42;11.13;;;4.07;;
55728;SDS011;41633;39.720;2.910;2022-10-16T11:24:19;10.50;;;3.30;;
55728;SDS011;41633;39.720;2.910;2022-10-16T11:26:46;9.55;;;3.60;;
55728;SDS011;41633;39.720;2.910;2022-10-16T11:29:16;16.80;;;12.80;;
55728;SDS011;41633;39.720;2.910;2022-10-16T11:31:46;11.27;;;4.38;;
55728;SDS011;41633;39.720;2.910;2022-10-16T11:34:21;10.45;;;3.45;;
55728;SDS011;41633;39.720;2.910;2022-10-16T11:39:21;10.45;;;3.60;;
55728;SDS011;41633;39.720;2.910;2022-10-16T11:47:08;11.68;;;4.25;;
55728;SDS011;41633;39.720;2.910;2022-10-16T11:49:37;12.02;;;3.85;;
55728;SDS011;41633;39.720;2.910;2022-10-16T11:54:35;12.15;;;3.60;;
55728;SDS011;41633;39.720;2.910;2022-10-16T11:57:15;14.88;;;6.53;;
55728;SDS011;41633;39.720;2.910;2022-10-16T11:59:44;10.98;;;3.80;;
55728;SDS011;41633;39.720;2.910;2022-10-16T12:03:00;11.85;;;4.00;;
55728;SDS011;41633;39.720;2.910;2022-10-16T12:07:34;10.27;;;3.72;;
55728;SDS011;41633;39.720;2.910;2022-10-16T12:10:22;12.88;;;3.40;;
55728;SDS011;41633;39.720;2.910;2022-10-16T12:12:49;12.57;;;3.70;;
55728;SDS011;41633;39.720;2.910;2022-10-16T12:15:20;9.50;;;3.22;;
55728;SDS011;41633;39.720;2.910;2022-10-16T12:17:46;10.48;;;3.30;;
55728;SDS011;41633;39.720;2.910;2022-10-16T12:22:56;12.13;;;3.60;;
55728;SDS011;41633;39.720;2.910;2022-10-16T12:27:55;14.57;;;3.67;;
55728;SDS011;41633;39.720;2.910;2022-10-16T12:30:23;10.50;;;3.60;;
55728;SDS011;41633;39.720;2.910;2022-10-16T12:32:56;9.65;;;3.47;;
55728;SDS011;41633;39.720;2.910;2022-10-16T12:35:27;15.85;;;7.40;;
55728;SDS011;41633;39.720;2.910;2022-10-16T12:37:54;9.95;;;3.60;;
55728;SDS011;41633;39.720;2.910;2022-10-16T12:40:25;9.15;;;3.40;;
55728;SDS011;41633;39.720;2.910;2022-10-16T12:42:51;18.02;;;6.70;;
55728;SDS011;41633;39.720;2.910;2022-10-16T12:45:25;12.77;;;4.00;;
55728;SDS011;41633;39.720;2.910;2022-10-16T12:47:52;15.53;;;4.50;;
55728;SDS011;41633;39.720;2.910;2022-10-16T12:53:00;10.20;;;3.25;;
55728;SDS011;41633;39.720;2.910;2022-10-16T12:55:27;10.35;;;2.85;;
55728;SDS011;41633;39.720;2.910;2022-10-16T12:58:20;9.52;;;3.47;;
55728;SDS011;41633;39.720;2.910;2022-10-16T13:00:57;10.32;;;3.72;;
55728;SDS011;41633;39.720;2.910;2022-10-16T13:18:23;10.95;;;4.00;;
55728;SDS011;41633;39.720;2.910;2022-10-16T13:28:37;8.25;;;2.70;;
55728;SDS011;41633;39.720;2.910;2022-10-16T13:31:04;7.63;;;2.28;;
55728;SDS011;41633;39.720;2.910;2022-10-16T13:33:40;10.30;;;2.30;;
55728;SDS011;41633;39.720;2.910;2022-10-16T13:36:18;8.63;;;2.33;;
55728;SDS011;41633;39.720;2.910;2022-10-16T13:38:44;9.10;;;2.42;;
55728;SDS011;41633;39.720;2.910;2022-10-16T13:41:17;7.75;;;1.90;;
55728;SDS011;41633;39.720;2.910;2022-10-16T13:46:18;9.13;;;2.28;;
55728;SDS011;41633;39.720;2.910;2022-10-16T13:48:44;10.80;;;2.38;;
55728;SDS011;41633;39.720;2.910;2022-10-16T13:51:15;9.10;;;2.33;;
55728;SDS011;41633;39.720;2.910;2022-10-16T13:53:42;10.05;;;2.25;;
55728;SDS011;41633;39.720;2.910;2022-10-16T13:56:15;7.47;;;1.80;;
55728;SDS011;41633;39.720;2.910;2022-10-16T13:58:42;9.40;;;2.20;;
55728;SDS011;41633;39.720;2.910;2022-10-16T14:01:16;9.07;;;2.25;;
55728;SDS011;41633;39.720;2.910;2022-10-16T14:03:43;10.00;;;2.38;;
55728;SDS011;41633;39.720;2.910;2022-10-16T14:06:27;9.57;;;2.25;;
55728;SDS011;41633;39.720;2.910;2022-10-16T14:09:01;7.35;;;2.03;;
55728;SDS011;41633;39.720;2.910;2022-10-16T14:11:30;8.07;;;2.00;;
55728;SDS011;41633;39.720;2.910;2022-10-16T14:13:57;8.40;;;2.22;;
55728;SDS011;41633;39.720;2.910;2022-10-16T14:16:25;8.50;;;2.00;;
55728;SDS011;41633;39.720;2.910;2022-10-16T14:21:21;7.32;;;1.70;;
55728;SDS011;41633;39.720;2.910;2022-10-16T14:23:48;7.93;;;1.95;;
55728;SDS011;41633;39.720;2.910;2022-10-16T14:26:15;8.00;;;1.92;;
55728;SDS011;41633;39.720;2.910;2022-10-16T14:28:41;8.35;;;2.30;;
55728;SDS011;41633;39.720;2.910;2022-10-16T14:33:53;8.05;;;2.40;;
55728;SDS011;41633;39.720;2.910;2022-10-16T14:36:19;9.25;;;2.40;;
55728;SDS011;41633;39.720;2.910;2022-10-16T14:41:15;8.60;;;2.08;;
55728;SDS011;41633;39.720;2.910;2022-10-16T14:43:49;10.68;;;2.47;;
55728;SDS011;41633;39.720;2.910;2022-10-16T14:46:17;9.63;;;2.70;;
55728;SDS011;41633;39.720;2.910;2022-10-16T14:48:45;8.93;;;2.45;;
55728;SDS011;41633;39.720;2.910;2022-10-16T14:51:19;8.48;;;2.20;;
55728;SDS011;41633;39.720;2.910;2022-10-16T14:53:45;8.32;;;2.30;;
55728;SDS011;41633;39.720;2.910;2022-10-16T14:56:16;7.57;;;1.90;;
55728;SDS011;41633;39.720;2.910;2022-10-16T14:58:43;9.13;;;2.92;;
55728;SDS011;41633;39.720;2.910;2022-10-16T15:01:09;9.65;;;3.30;;
55728;SDS011;41633;39.720;2.910;2022-10-16T15:03:37;10.57;;;3.05;;
55728;SDS011;41633;39.720;2.910;2022-10-16T15:06:03;9.35;;;2.50;;
55728;SDS011;41633;39.720;2.910;2022-10-16T15:08:35;11.43;;;2.10;;
55728;SDS011;41633;39.720;2.910;2022-10-16T15:11:01;9.30;;;2.28;;
55728;SDS011;41633;39.720;2.910;2022-10-16T15:13:27;9.48;;;2.10;;
55728;SDS011;41633;39.720;2.910;2022-10-16T15:15:54;7.63;;;1.92;;
55728;SDS011;41633;39.720;2.910;2022-10-16T15:18:20;7.07;;;1.92;;
55728;SDS011;41633;39.720;2.910;2022-10-16T15:20:50;11.43;;;2.67;;
55728;SDS011;41633;39.720;2.910;2022-10-16T15:23:18;10.70;;;2.40;;
55728;SDS011;41633;39.720;2.910;2022-10-16T15:25:48;9.27;;;2.50;;
55728;SDS011;41633;39.720;2.910;2022-10-16T15:28:15;7.72;;;2.08;;
55728;SDS011;41633;39.720;2.910;2022-10-16T15:30:41;8.57;;;2.22;;
55728;SDS011;41633;39.720;2.910;2022-10-16T15:33:19;9.50;;;2.80;;
55728;SDS011;41633;39.720;2.910;2022-10-16T15:35:46;9.23;;;2.47;;
55728;SDS011;41633;39.720;2.910;2022-10-16T15:38:13;10.00;;;2.50;;
55728;SDS011;41633;39.720;2.910;2022-10-16T15:40:39;9.70;;;2.53;;
55728;SDS011;41633;39.720;2.910;2022-10-16T15:43:06;8.10;;;2.00;;
55728;SDS011;41633;39.720;2.910;2022-10-16T15:45:32;8.23;;;2.40;;
55728;SDS011;41633;39.720;2.910;2022-10-16T15:47:58;9.15;;;2.22;;
55728;SDS011;41633;39.720;2.910;2022-10-16T15:50:24;10.52;;;2.58;;
55728;SDS011;41633;39.720;2.910;2022-10-16T15:52:50;10.18;;;2.67;;
55728;SDS011;41633;39.720;2.910;2022-10-16T15:55:17;10.70;;;2.67;;
55728;SDS011;41633;39.720;2.910;2022-10-16T15:57:43;10.18;;;2.58;;
55728;SDS011;41633;39.720;2.910;2022-10-16T16:00:14;11.35;;;2.58;;
55728;SDS011;41633;39.720;2.910;2022-10-16T16:02:41;10.80;;;2.70;;
55728;SDS011;41633;39.720;2.910;2022-10-16T16:05:08;11.05;;;2.70;;
55728;SDS011;41633;39.720;2.910;2022-10-16T16:07:35;10.93;;;2.92;;
55728;SDS011;41633;39.720;2.910;2022-10-16T16:10:02;11.00;;;3.10;;
55728;SDS011;41633;39.720;2.910;2022-10-16T16:12:29;11.95;;;3.15;;
55728;SDS011;41633;39.720;2.910;2022-10-16T16:14:55;12.50;;;3.03;;
55728;SDS011;41633;39.720;2.910;2022-10-16T16:17:21;9.85;;;3.25;;
55728;SDS011;41633;39.720;2.910;2022-10-16T16:19:48;8.95;;;3.20;;
55728;SDS011;41633;39.720;2.910;2022-10-16T16:22:14;9.90;;;3.53;;
55728;SDS011;41633;39.720;2.910;2022-10-16T16:24:40;11.27;;;3.20;;
55728;SDS011;41633;39.720;2.910;2022-10-16T16:27:07;13.82;;;3.55;;
55728;SDS011;41633;39.720;2.910;2022-10-16T16:29:33;12.10;;;3.85;;
55728;SDS011;41633;39.720;2.910;2022-10-16T16:31:59;11.27;;;3.80;;
55728;SDS011;41633;39.720;2.910;2022-10-16T16:34:26;16.30;;;3.65;;
55728;SDS011;41633;39.720;2.910;2022-10-16T16:36:53;13.95;;;3.88;;
55728;SDS011;41633;39.720;2.910;2022-10-16T16:39:19;14.38;;;4.18;;
55728;SDS011;41633;39.720;2.910;2022-10-16T16:41:45;12.55;;;3.83;;
55728;SDS011;41633;39.720;2.910;2022-10-16T16:44:12;15.35;;;3.47;;
55728;SDS011;41633;39.720;2.910;2022-10-16T16:46:38;11.02;;;4.00;;
55728;SDS011;41633;39.720;2.910;2022-10-16T16:49:04;16.90;;;3.85;;
55728;SDS011;41633;39.720;2.910;2022-10-16T16:51:31;12.50;;;3.70;;
55728;SDS011;41633;39.720;2.910;2022-10-16T16:53:57;13.32;;;3.72;;
55728;SDS011;41633;39.720;2.910;2022-10-16T16:56:24;13.48;;;3.55;;
55728;SDS011;41633;39.720;2.910;2022-10-16T16:58:51;11.93;;;3.15;;
55728;SDS011;41633;39.720;2.910;2022-10-16T17:01:17;13.18;;;3.40;;
55728;SDS011;41633;39.720;2.910;2022-10-16T17:03:44;11.52;;;3.33;;
55728;SDS011;41633;39.720;2.910;2022-10-16T17:06:10;11.38;;;3.50;;
55728;SDS011;41633;39.720;2.910;2022-10-16T17:08:37;12.77;;;3.47;;
55728;SDS011;41633;39.720;2.910;2022-10-16T17:11:04;13.82;;;3.63;;
55728;SDS011;41633;39.720;2.910;2022-10-16T17:13:31;13.00;;;3.70;;
55728;SDS011;41633;39.720;2.910;2022-10-16T17:16:00;13.98;;;4.10;;
55728;SDS011;41633;39.720;2.910;2022-10-16T17:18:26;12.65;;;4.00;;
55728;SDS011;41633;39.720;2.910;2022-10-16T17:20:52;14.20;;;3.70;;
55728;SDS011;41633;39.720;2.910;2022-10-16T17:23:19;14.63;;;3.65;;
55728;SDS011;41633;39.720;2.910;2022-10-16T17:25:45;10.57;;;3.72;;
55728;SDS011;41633;39.720;2.910;2022-10-16T17:28:13;11.93;;;4.18;;
55728;SDS011;41633;39.720;2.910;2022-10-16T17:30:40;15.07;;;4.47;;
55728;SDS011;41633;39.720;2.910;2022-10-16T17:33:07;15.15;;;4.28;;
55728;SDS011;41633;39.720;2.910;2022-10-16T17:35:40;13.82;;;4.80;;
55728;SDS011;41633;39.720;2.910;2022-10-16T17:38:07;14.75;;;4.47;;
55728;SDS011;41633;39.720;2.910;2022-10-16T17:40:33;12.57;;;4.15;;
55728;SDS011;41633;39.720;2.910;2022-10-16T17:42:59;13.18;;;3.80;;
55728;SDS011;41633;39.720;2.910;2022-10-16T17:45:26;11.02;;;3.58;;
55728;SDS011;41633;39.720;2.910;2022-10-16T17:47:52;14.85;;;3.80;;
55728;SDS011;41633;39.720;2.910;2022-10-16T17:50:18;16.38;;;3.85;;
55728;SDS011;41633;39.720;2.910;2022-10-16T17:52:44;15.48;;;4.68;;
55728;SDS011;41633;39.720;2.910;2022-10-16T17:55:10;13.00;;;4.18;;
55728;SDS011;41633;39.720;2.910;2022-10-16T17:57:37;14.45;;;4.28;;
55728;SDS011;41633;39.720;2.910;2022-10-16T18:00:04;15.90;;;4.00;;
55728;SDS011;41633;39.720;2.910;2022-10-16T18:02:30;13.52;;;4.25;;
55728;SDS011;41633;39.720;2.910;2022-10-16T18:04:56;13.15;;;3.95;;
55728;SDS011;41633;39.720;2.910;2022-10-16T18:07:23;13.27;;;4.03;;
55728;SDS011;41633;39.720;2.910;2022-10-16T18:09:49;11.65;;;4.28;;
55728;SDS011;41633;39.720;2.910;2022-10-16T18:12:15;12.88;;;4.13;;
55728;SDS011;41633;39.720;2.910;2022-10-16T18:14:42;13.15;;;4.45;;
55728;SDS011;41633;39.720;2.910;2022-10-16T18:17:08;15.32;;;4.10;;
55728;SDS011;41633;39.720;2.910;2022-10-16T18:19:34;12.02;;;3.72;;
55728;SDS011;41633;39.720;2.910;2022-10-16T18:22:00;12.43;;;3.67;;
55728;SDS011;41633;39.720;2.910;2022-10-16T18:24:26;25.80;;;14.75;;
55728;SDS011;41633;39.720;2.910;2022-10-16T18:26:53;16.13;;;7.70;;
55728;SDS011;41633;39.720;2.910;2022-10-16T18:29:21;13.45;;;4.53;;
55728;SDS011;41633;39.720;2.910;2022-10-16T18:31:47;13.10;;;3.92;;